Hauptseite
METAR-TAF:

METAR-TAF

Flughäfen :

Flughafen Funafuti

Funafuti, Tuvalu

Breite: 08-31S, Länge: 179-13E, Höhe: 1 m

Beobachtung

Neuester Wetterbericht von vor 33 Minuten, um 08:00 UTC
Wind 5 kt aus Ost/Südost
Temperatur 28°C
Luftfeuchtigkeit 89%
Luftdruck 1010 hPa
Sichtweite: 9000 m
Leicht bewölkt in der Höhe von 1500 ft, Kumulonimbus.
Leicht bewölkt in der Höhe von 1700 ft, Towering cumulus.
Durchbrochene Bewölkung in der Höhe von 10000 ft
Schauer in der Nähe

METAR: NGFU 210800Z 11005KT 9000 VCSH FEW015CB FEW017TCU BKN100 28/26 Q1010

Zeit: 20:33 (08:33 UTC)

Prognose

Neuester Wetterbericht von vor 3 Stunden und 24 Minuten, um 05:09 UTC
Gültige Prognose vom 21 um 06 UTC bis 22 um 06 UTC
Wind 6 kt aus Ost
Sichtweite 10 km oder mehr
Aufgelockert bewölkt in der Höhe von 1800 ft
Aufgelockert bewölkt in der Höhe von 4000 ft

TAF: NGFU 210509Z 2106/2206 09006KT 9999 SCT018 SCT040

Wetterbeobachtungen und Prognosen von mehr als 4000 Flughäfen (METAR und TAF Bericht).

Die verfügbaren Stationen werden durch gelbe und rote Markierungen auf der Karte dargestellt.

Führen Sie die Maus auf sie, um den Namen der Station zu sehen.

Darauf klicken, um die Beobachtung von Wetterbeobachtungen und Prognosen zu sehen.

Um die Karte zu ändern : klicken Sie auf den grünen Tasten mit einem schwarzen Kreuz Zum Vergrößern, auf den grünen Button mit einem Gedankenstrich zu verkleinern, oder auf die grünen Pfeile für benachbarte Karten.


METAR-TAF: